Time;durP1;ratioP1;P1;durP2;ratioP2;P2;SDS_P1;SDS_P2;PMS_P1;PMS_P2;Temp;Humidity;BMP_temperature;BMP_pressure;BME280_temperature;BME280_humidity;BME280_pressure;Samples;Min_cycle;Max_cycle;Signal;HPM_P1;HPM_P2
2021/10/04 00:02:01;;;;;;;4.93;3.17;;;15.70;99.90;;;;;;4962416;28;20038;-74
2021/10/04 00:04:28;;;;;;;3.78;2.95;;;15.70;99.90;;;;;;4963170;28;20024;-75
2021/10/04 00:06:54;;;;;;;3.45;3.10;;;15.70;99.90;;;;;;4970342;28;20050;-75
2021/10/04 00:09:19;;;;;;;3.75;3.30;;;15.70;99.90;;;;;;4968784;28;20489;-74
2021/10/04 00:11:45;;;;;;;4.22;3.47;;;15.60;99.90;;;;;;4969304;28;20588;-76
2021/10/04 00:14:10;;;;;;;4.20;3.30;;;15.60;99.90;;;;;;4968551;28;20030;-75
2021/10/04 00:16:37;;;;;;;4.55;3.42;;;15.70;99.90;;;;;;4962288;28;20516;-75
2021/10/04 00:19:03;;;;;;;4.80;3.08;;;15.60;99.90;;;;;;4962735;28;20042;-74
2021/10/04 00:21:29;;;;;;;4.30;3.30;;;15.70;99.90;;;;;;4969342;28;20543;-75
2021/10/04 00:23:54;;;;;;;5.50;3.10;;;15.70;99.90;;;;;;4968231;28;20071;-75
2021/10/04 00:26:20;;;;;;;4.30;3.10;;;15.70;99.90;;;;;;4962360;28;20081;-75
2021/10/04 00:28:45;;;;;;;3.38;2.70;;;15.70;99.90;;;;;;4975241;28;20065;-75
2021/10/04 00:31:11;;;;;;;3.20;2.70;;;15.60;99.90;;;;;;4962044;28;20027;-75
2021/10/04 00:33:37;;;;;;;4.50;2.95;;;15.50;99.90;;;;;;4960896;28;20186;-76
2021/10/04 00:36:02;;;;;;;4.20;3.30;;;15.70;99.90;;;;;;4972745;28;20504;-76
2021/10/04 00:38:28;;;;;;;3.88;2.67;;;15.60;99.90;;;;;;4962214;28;20110;-77
2021/10/04 00:40:53;;;;;;;4.05;3.15;;;15.50;99.90;;;;;;4967312;28;20441;-79
2021/10/04 00:43:21;;;;;;;4.30;3.13;;;15.50;99.90;;;;;;4965582;28;20050;-77
2021/10/04 00:45:47;;;;;;;4.70;3.42;;;15.50;99.90;;;;;;4968318;28;20020;-75
2021/10/04 00:48:12;;;;;;;4.00;3.10;;;15.50;99.90;;;;;;4968492;28;20078;-75
2021/10/04 00:50:38;;;;;;;4.82;3.40;;;15.50;99.90;;;;;;4954238;29;20027;-76
2021/10/04 00:53:04;;;;;;;4.55;3.30;;;15.60;99.90;;;;;;4968301;28;20094;-75
2021/10/04 00:55:29;;;;;;;5.85;3.60;;;15.60;99.90;;;;;;4962035;28;20030;-75
2021/10/04 00:57:56;;;;;;;4.20;3.35;;;15.60;99.90;;;;;;4973825;28;20474;-75
2021/10/04 01:00:24;;;;;;;4.22;3.72;;;15.40;99.90;;;;;;4968100;28;20111;-74
2021/10/04 01:02:50;;;;;;;5.03;3.75;;;15.40;99.90;;;;;;4968380;28;20552;-75
2021/10/04 01:05:16;;;;;;;4.32;3.80;;;15.40;99.90;;;;;;4967912;28;20110;-75
2021/10/04 01:07:42;;;;;;;3.85;3.40;;;15.40;99.90;;;;;;4967958;28;20428;-76
2021/10/04 01:10:09;;;;;;;4.85;3.50;;;15.30;99.90;;;;;;4961947;28;20042;-75
2021/10/04 01:12:41;;;;;;;5.55;3.42;;;15.20;99.90;;;;;;4974277;28;20035;-75
2021/10/04 01:15:08;;;;;;;5.15;3.35;;;15.20;99.90;;;;;;4967068;28;20481;-76
2021/10/04 01:17:34;;;;;;;3.97;3.30;;;15.30;99.90;;;;;;4968070;28;20504;-76
2021/10/04 01:20:07;;;;;;;5.07;3.70;;;15.30;99.90;;;;;;4962259;28;20065;-76
2021/10/04 01:22:33;;;;;;;4.07;3.55;;;15.30;99.90;;;;;;4961586;28;20401;-76
2021/10/04 01:24:58;;;;;;;4.30;3.35;;;15.30;99.90;;;;;;4964573;28;20023;-76
2021/10/04 01:27:24;;;;;;;4.50;3.28;;;15.30;99.90;;;;;;4968036;28;20421;-76
2021/10/04 01:29:49;;;;;;;4.13;2.97;;;15.40;99.90;;;;;;4963463;28;20039;-77
2021/10/04 01:32:15;;;;;;;3.67;3.15;;;15.40;99.90;;;;;;4961636;28;20123;-77
2021/10/04 01:34:40;;;;;;;5.70;3.38;;;15.50;99.90;;;;;;4966319;28;20037;-75
2021/10/04 01:37:06;;;;;;;3.67;2.83;;;15.50;99.90;;;;;;4966828;28;20049;-76
2021/10/04 01:39:32;;;;;;;3.97;3.38;;;15.50;99.90;;;;;;4962818;28;20034;-76
2021/10/04 01:41:57;;;;;;;3.50;3.20;;;15.30;99.90;;;;;;4959563;28;20031;-76
2021/10/04 01:44:23;;;;;;;2.95;2.65;;;15.20;99.90;;;;;;4971100;28;20078;-75
2021/10/04 01:46:49;;;;;;;4.05;2.90;;;15.20;99.90;;;;;;4966098;28;20030;-75
2021/10/04 01:49:15;;;;;;;3.58;3.13;;;15.10;99.90;;;;;;4973066;28;20034;-75
2021/10/04 01:51:40;;;;;;;4.95;3.08;;;15.00;99.90;;;;;;4971669;28;20358;-75
2021/10/04 01:54:06;;;;;;;3.10;2.72;;;15.00;99.90;;;;;;4962889;28;20030;-75
2021/10/04 01:56:31;;;;;;;4.25;3.13;;;15.10;99.90;;;;;;4962736;28;20499;-76
2021/10/04 01:58:57;;;;;;;3.65;3.10;;;15.10;99.90;;;;;;4973558;28;20034;-75
2021/10/04 02:01:23;;;;;;;3.35;2.53;;;15.10;99.90;;;;;;4960738;28;20028;-75
2021/10/04 02:03:50;;;;;;;3.78;3.00;;;15.10;99.90;;;;;;4966047;28;20477;-76
2021/10/04 02:06:17;;;;;;;3.20;2.90;;;15.00;99.90;;;;;;4968184;28;20019;-76
2021/10/04 02:08:42;;;;;;;3.88;2.72;;;15.10;99.90;;;;;;4954234;29;20109;-76
2021/10/04 02:11:08;;;;;;;2.83;2.58;;;15.00;99.90;;;;;;4966940;28;20118;-76
2021/10/04 02:13:33;;;;;;;2.72;2.25;;;15.00;99.90;;;;;;4962641;28;20105;-76
2021/10/04 02:15:59;;;;;;;2.50;2.30;;;15.00;99.90;;;;;;4960113;28;20034;-76
2021/10/04 02:18:24;;;;;;;3.03;2.50;;;15.00;99.90;;;;;;4965384;28;20023;-76
2021/10/04 02:20:50;;;;;;;2.33;2.13;;;15.10;99.90;;;;;;4966784;28;20027;-77
2021/10/04 02:23:15;;;;;;;2.90;2.10;;;15.10;99.90;;;;;;4961942;28;20029;-77
2021/10/04 02:25:46;;;;;;;2.30;2.10;;;15.00;99.90;;;;;;4960089;28;20031;-77
2021/10/04 02:28:14;;;;;;;5.03;2.25;;;15.10;99.90;;;;;;4965726;28;20385;-75
2021/10/04 02:30:41;;;;;;;4.13;2.30;;;15.00;99.90;;;;;;4968088;28;20023;-76
2021/10/04 02:33:07;;;;;;;2.83;2.10;;;14.90;99.90;;;;;;4963970;28;20034;-76
2021/10/04 02:35:33;;;;;;;3.22;2.45;;;15.00;99.90;;;;;;4960262;28;20064;-76
2021/10/04 02:37:58;;;;;;;3.30;2.58;;;14.90;99.90;;;;;;4965522;28;20482;-76
2021/10/04 02:40:25;;;;;;;2.58;2.38;;;15.00;99.90;;;;;;4965992;28;20034;-76
2021/10/04 02:42:51;;;;;;;2.40;2.03;;;14.90;99.90;;;;;;4961916;28;20022;-76
2021/10/04 02:45:18;;;;;;;2.20;2.00;;;14.90;99.90;;;;;;4986040;28;20054;-77
2021/10/04 02:47:45;;;;;;;2.35;1.90;;;14.90;99.90;;;;;;4963720;28;20492;-76
2021/10/04 02:50:14;;;;;;;3.42;2.30;;;14.90;99.90;;;;;;4966799;28;20055;-76
2021/10/04 02:52:40;;;;;;;3.22;1.90;;;14.80;99.90;;;;;;4963427;28;20476;-76
2021/10/04 02:55:06;;;;;;;2.00;1.80;;;14.90;99.90;;;;;;4959951;28;20027;-76
2021/10/04 02:57:32;;;;;;;2.50;2.15;;;14.90;99.90;;;;;;4965038;28;20028;-76
2021/10/04 02:59:57;;;;;;;2.97;1.75;;;14.90;99.90;;;;;;4969138;28;20024;-76
2021/10/04 03:02:24;;;;;;;2.00;1.80;;;14.70;99.90;;;;;;4967094;28;20121;-76
2021/10/04 03:04:50;;;;;;;2.15;1.90;;;14.70;99.90;;;;;;4962635;28;20027;-76
2021/10/04 03:07:16;;;;;;;2.45;2.20;;;14.70;99.90;;;;;;4967433;28;20027;-76
2021/10/04 03:09:41;;;;;;;2.70;1.90;;;14.70;99.90;;;;;;4970498;28;20054;-75
2021/10/04 03:12:07;;;;;;;2.10;1.90;;;14.50;99.90;;;;;;4966695;28;20100;-76
2021/10/04 03:14:34;;;;;;;2.90;2.20;;;14.70;99.90;;;;;;4962276;28;20121;-77
2021/10/04 03:17:00;;;;;;;3.05;2.40;;;14.70;99.90;;;;;;4967147;28;20031;-75
2021/10/04 03:19:26;;;;;;;2.40;2.20;;;14.70;99.90;;;;;;4970223;28;20090;-76
2021/10/04 03:21:52;;;;;;;3.08;1.90;;;14.50;99.90;;;;;;4965798;28;20027;-75
2021/10/04 03:24:17;;;;;;;3.28;2.05;;;14.50;99.90;;;;;;4974039;28;20109;-76
2021/10/04 03:26:43;;;;;;;4.55;2.20;;;14.50;99.90;;;;;;4991241;28;20023;-76
2021/10/04 03:29:10;;;;;;;2.35;1.70;;;14.60;99.90;;;;;;4963272;28;20086;-76
2021/10/04 03:31:36;;;;;;;2.55;1.60;;;14.60;99.90;;;;;;4967543;28;20087;-75
2021/10/04 03:34:02;;;;;;;4.65;1.80;;;14.70;99.90;;;;;;4969706;28;20031;-74
2021/10/04 03:36:27;;;;;;;2.30;1.52;;;14.50;99.90;;;;;;4965857;28;20035;-75
2021/10/04 03:38:53;;;;;;;1.92;1.60;;;14.40;99.90;;;;;;4963011;28;20027;-75
2021/10/04 03:41:19;;;;;;;1.70;1.30;;;14.50;99.90;;;;;;4967514;28;20019;-76
2021/10/04 03:43:45;;;;;;;3.53;1.60;;;14.50;99.90;;;;;;4973882;28;20037;-75
2021/10/04 03:46:11;;;;;;;2.95;1.40;;;14.50;99.90;;;;;;4984311;28;20031;-74
2021/10/04 03:48:36;;;;;;;2.40;1.58;;;14.50;99.90;;;;;;4962985;28;20042;-74
2021/10/04 03:51:02;;;;;;;2.13;1.58;;;14.50;99.90;;;;;;4966185;28;20050;-74
2021/10/04 03:53:28;;;;;;;1.15;1.05;;;14.40;99.90;;;;;;4969584;28;20478;-74
2021/10/04 03:55:53;;;;;;;2.40;1.33;;;14.30;99.90;;;;;;4966303;28;20026;-73
2021/10/04 03:58:19;;;;;;;1.35;1.13;;;14.30;99.90;;;;;;4962646;28;20378;-73
2021/10/04 04:00:44;;;;;;;1.52;0.98;;;14.20;99.90;;;;;;4966187;28;20466;-76
2021/10/04 04:03:10;;;;;;;1.00;0.90;;;14.10;99.90;;;;;;4969465;28;20267;-75
2021/10/04 04:05:35;;;;;;;1.98;1.05;;;14.10;99.90;;;;;;4964107;28;20054;-75
2021/10/04 04:08:02;;;;;;;1.23;1.13;;;14.00;99.90;;;;;;4962511;28;20023;-75
2021/10/04 04:10:27;;;;;;;1.30;1.00;;;14.00;99.90;;;;;;4966515;28;20159;-74
2021/10/04 04:12:53;;;;;;;1.70;1.08;;;14.10;99.90;;;;;;4968905;28;20505;-75
2021/10/04 04:15:18;;;;;;;1.80;1.08;;;14.00;99.90;;;;;;4965368;28;20533;-75
2021/10/04 04:17:44;;;;;;;2.35;1.15;;;14.00;99.90;;;;;;4962447;28;20481;-76
2021/10/04 04:20:11;;;;;;;1.30;1.20;;;14.00;99.90;;;;;;4965115;28;20402;-75
2021/10/04 04:22:36;;;;;;;2.92;1.20;;;14.00;99.90;;;;;;4969060;28;20436;-75
2021/10/04 04:25:03;;;;;;;1.73;1.10;;;14.00;99.90;;;;;;4954936;29;20023;-75
2021/10/04 04:27:29;;;;;;;1.38;1.20;;;13.90;99.90;;;;;;4967431;28;20409;-75
2021/10/04 04:29:57;;;;;;;1.10;1.00;;;13.90;99.90;;;;;;4955972;29;20027;-75
2021/10/04 04:32:22;;;;;;;3.33;1.20;;;14.00;99.90;;;;;;4968502;28;20031;-74
2021/10/04 04:34:48;;;;;;;2.28;1.02;;;13.90;99.90;;;;;;4955864;28;20038;-75
2021/10/04 04:37:14;;;;;;;1.13;1.02;;;13.80;99.90;;;;;;4968447;28;20101;-73
2021/10/04 04:39:39;;;;;;;1.58;1.00;;;13.90;99.90;;;;;;4964488;28;20074;-74
2021/10/04 04:42:06;;;;;;;3.03;1.20;;;13.90;99.90;;;;;;4960318;28;20055;-74
2021/10/04 04:44:31;;;;;;;1.88;1.00;;;13.70;99.90;;;;;;4984540;28;20345;-73
2021/10/04 04:46:57;;;;;;;2.70;1.20;;;13.70;99.90;;;;;;4978380;28;20073;-75
2021/10/04 04:49:26;;;;;;;1.67;1.02;;;13.70;99.90;;;;;;4965013;28;20027;-74
2021/10/04 04:51:56;;;;;;;2.10;0.98;;;13.60;99.90;;;;;;4964479;28;20110;-75
2021/10/04 04:54:23;;;;;;;1.20;1.10;;;13.60;99.90;;;;;;4961327;28;20034;-75
2021/10/04 04:56:49;;;;;;;0.80;0.80;;;13.60;99.90;;;;;;4967139;28;20122;-75
2021/10/04 04:59:15;;;;;;;1.48;1.17;;;13.70;99.90;;;;;;4964403;28;20468;-76
2021/10/04 05:01:41;;;;;;;1.35;1.10;;;13.60;99.90;;;;;;4961303;28;20027;-75
2021/10/04 05:04:08;;;;;;;1.42;1.00;;;13.60;99.90;;;;;;4964039;28;20070;-76
2021/10/04 05:06:34;;;;;;;2.05;1.10;;;13.70;99.90;;;;;;4971079;28;20117;-76
2021/10/04 05:08:59;;;;;;;1.50;1.08;;;13.60;99.90;;;;;;4963985;28;20086;-74
2021/10/04 05:11:25;;;;;;;1.52;1.08;;;13.70;99.90;;;;;;4967820;28;20492;-74
2021/10/04 05:13:50;;;;;;;1.40;1.00;;;13.60;99.90;;;;;;4964443;28;20078;-74
2021/10/04 05:16:17;;;;;;;1.23;0.93;;;13.60;99.90;;;;;;4961498;28;20027;-75
2021/10/04 05:18:42;;;;;;;2.17;1.00;;;13.60;99.90;;;;;;4963606;28;20425;-75
2021/10/04 05:21:08;;;;;;;1.00;0.88;;;13.60;99.90;;;;;;4967319;28;20023;-74
2021/10/04 05:23:34;;;;;;;1.40;1.00;;;13.70;99.90;;;;;;4964363;28;20023;-75
2021/10/04 05:25:59;;;;;;;1.23;1.13;;;13.70;99.90;;;;;;4959779;28;20026;-75
2021/10/04 05:28:25;;;;;;;2.05;1.10;;;13.70;99.90;;;;;;4963941;28;20029;-75
2021/10/04 05:30:50;;;;;;;2.25;1.00;;;13.60;99.90;;;;;;4966219;28;20118;-75
2021/10/04 05:33:16;;;;;;;0.88;0.88;;;13.40;99.90;;;;;;4963621;28;20384;-76
2021/10/04 05:35:41;;;;;;;1.00;0.80;;;13.30;99.90;;;;;;4960854;28;20093;-75
2021/10/04 05:38:07;;;;;;;3.35;1.17;;;13.40;99.90;;;;;;4964075;28;20023;-72
2021/10/04 05:40:32;;;;;;;1.63;0.60;;;13.30;99.90;;;;;;4954310;29;20082;-71
2021/10/04 05:42:58;;;;;;;0.73;0.70;;;13.30;99.90;;;;;;4953378;29;20023;-73
2021/10/04 05:45:23;;;;;;;1.05;0.65;;;13.30;99.90;;;;;;4983817;28;20400;-74
2021/10/04 05:47:49;;;;;;;1.27;0.50;;;13.30;99.90;;;;;;4962598;28;20027;-74
2021/10/04 05:50:15;;;;;;;0.88;0.50;;;13.30;99.90;;;;;;4966180;28;20114;-74
2021/10/04 05:52:40;;;;;;;0.75;0.50;;;13.10;99.90;;;;;;4969715;28;20081;-75
2021/10/04 05:55:07;;;;;;;1.00;0.60;;;13.10;99.90;;;;;;4959548;28;20546;-75
2021/10/04 05:57:33;;;;;;;2.20;0.65;;;13.30;99.90;;;;;;4973546;28;20027;-75
2021/10/04 05:59:58;;;;;;;1.73;0.60;;;13.30;99.90;;;;;;4959475;28;20096;-75
2021/10/04 06:02:24;;;;;;;0.55;0.50;;;13.20;99.90;;;;;;4963794;28;20021;-75
2021/10/04 06:04:49;;;;;;;1.05;0.70;;;13.20;99.90;;;;;;4967773;28;20035;-75
2021/10/04 06:07:15;;;;;;;3.00;0.90;;;13.20;99.90;;;;;;4965214;28;20589;-75
2021/10/04 06:09:41;;;;;;;0.77;0.77;;;13.20;99.90;;;;;;4960706;28;20101;-75
2021/10/04 06:12:07;;;;;;;1.92;0.70;;;13.20;99.90;;;;;;4964017;28;20053;-75
2021/10/04 06:14:33;;;;;;;0.88;0.70;;;13.30;99.90;;;;;;4967108;28;20028;-74
2021/10/04 06:17:00;;;;;;;2.10;0.70;;;13.30;99.90;;;;;;4958902;28;20033;-75
2021/10/04 06:19:26;;;;;;;1.13;0.82;;;13.20;99.90;;;;;;4958833;28;20109;-75
2021/10/04 06:21:52;;;;;;;0.70;0.68;;;13.20;99.90;;;;;;4971824;28;20481;-74
2021/10/04 06:24:17;;;;;;;1.52;0.90;;;13.20;99.90;;;;;;4960191;28;20058;-74
2021/10/04 06:26:43;;;;;;;1.48;0.70;;;13.20;99.90;;;;;;4971827;28;20117;-74
2021/10/04 06:29:09;;;;;;;0.82;0.80;;;13.20;99.90;;;;;;4956485;28;20031;-74
2021/10/04 06:31:34;;;;;;;2.10;0.80;;;13.10;99.90;;;;;;4961558;28;20022;-75
2021/10/04 06:33:59;;;;;;;2.05;0.70;;;13.10;99.90;;;;;;4960245;28;20034;-73
2021/10/04 06:36:25;;;;;;;1.42;0.90;;;13.00;99.90;;;;;;4962863;28;20086;-75
2021/10/04 06:38:51;;;;;;;1.75;0.85;;;13.10;99.90;;;;;;4964372;28;20053;-74
2021/10/04 06:41:17;;;;;;;2.00;0.80;;;13.30;99.90;;;;;;4969074;28;20027;-75
2021/10/04 06:43:42;;;;;;;1.08;0.70;;;13.50;99.90;;;;;;4979445;28;20054;-74
2021/10/04 06:46:08;;;;;;;2.08;0.80;;;13.40;99.90;;;;;;4976287;28;20046;-74
2021/10/04 06:48:35;;;;;;;1.90;0.80;;;13.40;99.90;;;;;;4975007;28;20062;-74
2021/10/04 06:51:01;;;;;;;0.68;0.60;;;13.30;99.90;;;;;;4970180;28;20041;-75
2021/10/04 06:53:26;;;;;;;3.60;0.60;;;13.20;99.90;;;;;;4976644;28;20119;-74
2021/10/04 06:55:52;;;;;;;1.05;0.80;;;13.20;99.90;;;;;;4969420;28;20042;-74
2021/10/04 06:58:17;;;;;;;0.82;0.70;;;13.30;99.90;;;;;;4971555;28;20113;-74
2021/10/04 07:00:43;;;;;;;1.67;0.63;;;13.40;99.90;;;;;;4968511;28;20473;-74
2021/10/04 07:03:08;;;;;;;1.08;0.90;;;13.50;99.90;;;;;;4973647;28;20023;-74
2021/10/04 07:05:34;;;;;;;2.20;0.70;;;13.30;99.90;;;;;;4971452;28;20046;-74
2021/10/04 07:08:00;;;;;;;5.78;0.85;;;13.30;99.90;;;;;;4976024;28;20496;-74
2021/10/04 07:10:26;;;;;;;1.88;0.57;;;13.10;99.90;;;;;;4982082;28;20117;-74
2021/10/04 07:12:52;;;;;;;1.95;0.50;;;13.30;99.90;;;;;;4977186;28;20366;-74
2021/10/04 07:15:18;;;;;;;1.05;0.57;;;13.30;99.90;;;;;;4962875;28;20111;-74
2021/10/04 07:17:43;;;;;;;0.63;0.50;;;13.30;99.90;;;;;;4964662;28;20050;-74
2021/10/04 07:20:09;;;;;;;1.48;0.52;;;13.30;99.90;;;;;;4963050;28;20118;-74
2021/10/04 07:22:36;;;;;;;1.55;0.52;;;13.30;99.90;;;;;;4959336;28;20401;-74
2021/10/04 07:25:02;;;;;;;1.23;0.60;;;13.30;99.90;;;;;;4963407;28;20396;-75
2021/10/04 07:27:28;;;;;;;1.77;0.93;;;13.20;99.90;;;;;;4967631;28;20023;-74
2021/10/04 07:29:53;;;;;;;6.85;0.80;;;13.20;99.90;;;;;;4963358;28;20046;-74
2021/10/04 07:32:19;;;;;;;2.50;0.60;;;13.20;99.90;;;;;;4967531;28;20034;-74
2021/10/04 07:34:45;;;;;;;2.40;0.50;;;13.30;99.90;;;;;;4963678;28;20434;-74
2021/10/04 07:37:10;;;;;;;0.65;0.43;;;13.10;99.90;;;;;;4951762;29;20050;-74
2021/10/04 07:39:36;;;;;;;1.27;0.60;;;13.10;99.90;;;;;;4962095;28;20027;-75
2021/10/04 07:42:02;;;;;;;0.75;0.50;;;13.10;99.90;;;;;;4969710;28;20033;-74
2021/10/04 07:44:28;;;;;;;1.27;0.50;;;13.20;99.90;;;;;;4954930;28;20024;-75
2021/10/04 07:46:57;;;;;;;0.73;0.50;;;13.40;99.90;;;;;;4969342;28;20038;-75
2021/10/04 07:49:23;;;;;;;1.23;0.63;;;13.20;99.90;;;;;;4964731;28;20077;-74
2021/10/04 07:51:49;;;;;;;3.30;0.80;;;13.20;99.90;;;;;;4966924;28;20034;-75
2021/10/04 07:54:14;;;;;;;1.13;0.50;;;13.10;99.90;;;;;;4965394;28;20027;-74
2021/10/04 07:56:41;;;;;;;1.08;0.50;;;12.90;99.90;;;;;;4969558;28;20086;-75
2021/10/04 07:59:08;;;;;;;1.58;0.60;;;13.10;99.90;;;;;;4965590;28;20023;-74
2021/10/04 08:01:35;;;;;;;2.13;0.60;;;13.00;99.90;;;;;;4961362;28;20064;-74
2021/10/04 08:04:00;;;;;;;2.72;0.55;;;12.90;99.90;;;;;;4975818;28;20030;-74
2021/10/04 08:06:28;;;;;;;1.52;0.50;;;12.90;99.90;;;;;;4959988;28;20042;-75
2021/10/04 08:08:54;;;;;;;0.95;0.60;;;13.10;99.90;;;;;;4956471;29;20114;-75
2021/10/04 08:11:21;;;;;;;0.60;0.60;;;13.10;99.90;;;;;;4969147;28;20839;-74
2021/10/04 08:13:49;;;;;;;1.52;0.80;;;13.00;99.90;;;;;;4955013;29;20035;-75
2021/10/04 08:16:15;;;;;;;0.70;0.60;;;13.10;99.90;;;;;;4967976;28;20086;-74
2021/10/04 08:18:40;;;;;;;1.15;0.68;;;13.10;99.90;;;;;;4965724;28;20907;-75
2021/10/04 08:21:06;;;;;;;0.82;0.70;;;13.00;99.90;;;;;;4962078;28;20027;-75
2021/10/04 08:23:33;;;;;;;2.88;0.95;;;12.90;99.90;;;;;;4975378;28;20018;-75
2021/10/04 08:25:58;;;;;;;1.05;0.95;;;13.00;99.90;;;;;;4960967;28;20049;-75
2021/10/04 08:28:24;;;;;;;2.83;1.35;;;13.00;99.90;;;;;;4965686;28;20485;-74
2021/10/04 08:30:49;;;;;;;1.83;1.10;;;12.80;99.90;;;;;;4968898;28;20027;-75
2021/10/04 08:33:15;;;;;;;1.88;1.35;;;12.70;99.90;;;;;;4965514;28;20025;-75
2021/10/04 08:35:40;;;;;;;2.47;1.23;;;12.70;99.90;;;;;;4961847;28;20027;-75
2021/10/04 08:38:06;;;;;;;3.25;1.10;;;12.60;99.90;;;;;;4965766;28;20106;-75
2021/10/04 08:40:32;;;;;;;1.20;1.10;;;12.40;99.90;;;;;;4969076;28;20481;-76
2021/10/04 08:42:58;;;;;;;3.47;1.10;;;12.60;99.90;;;;;;4955993;29;20459;-75
2021/10/04 08:45:28;;;;;;;3.13;1.10;;;12.80;99.90;;;;;;4959526;28;20071;-76
2021/10/04 08:48:02;;;;;;;2.47;0.98;;;12.70;99.90;;;;;;4963035;28;20023;-76
2021/10/04 08:50:31;;;;;;;2.38;1.27;;;12.80;99.90;;;;;;4973742;28;20023;-76
2021/10/04 08:52:57;;;;;;;3.05;1.13;;;12.90;99.90;;;;;;4963056;28;20081;-76
2021/10/04 08:55:23;;;;;;;1.48;1.17;;;12.90;99.90;;;;;;4959902;28;20598;-76
2021/10/04 08:57:48;;;;;;;2.58;1.15;;;13.00;99.90;;;;;;4961660;28;20031;-76
2021/10/04 09:00:14;;;;;;;3.28;1.17;;;13.10;99.90;;;;;;4968189;28;20035;-76
2021/10/04 09:02:40;;;;;;;1.42;0.95;;;12.90;99.90;;;;;;4966908;28;20501;-75
2021/10/04 09:05:08;;;;;;;1.73;1.50;;;12.90;99.90;;;;;;4962189;28;20038;-76
2021/10/04 09:07:51;;;;;;;1.55;1.20;;;12.80;99.90;;;;;;4963948;28;20046;-76
2021/10/04 09:10:30;;;;;;;2.42;1.10;;;12.80;99.90;;;;;;4961416;28;20027;-76
2021/10/04 09:13:01;;;;;;;4.15;1.33;;;12.90;99.90;;;;;;4959091;28;20035;-76
2021/10/04 09:15:50;;;;;;;1.85;1.55;;;13.10;99.90;;;;;;4955075;28;20034;-76
2021/10/04 09:18:27;;;;;;;3.10;1.50;;;13.00;99.90;;;;;;4961671;28;20401;-76
2021/10/04 09:21:09;;;;;;;2.83;1.75;;;13.00;99.90;;;;;;4959817;28;20027;-76
2021/10/04 09:23:46;;;;;;;2.65;1.50;;;12.80;99.90;;;;;;4964394;28;20500;-76
2021/10/04 09:26:32;;;;;;;3.58;1.38;;;13.00;99.90;;;;;;4966711;28;20460;-76
2021/10/04 09:29:11;;;;;;;3.25;1.52;;;12.70;99.90;;;;;;4966558;28;20489;-76
2021/10/04 09:31:38;;;;;;;1.77;1.23;;;12.50;99.90;;;;;;4962397;28;20548;-75
2021/10/04 09:34:16;;;;;;;2.50;1.70;;;12.50;99.90;;;;;;4958264;28;20118;-76
2021/10/04 09:36:41;;;;;;;3.65;1.60;;;12.50;99.90;;;;;;4965422;28;20088;-75
2021/10/04 09:39:25;;;;;;;2.05;1.75;;;12.60;99.90;;;;;;4960602;28;20389;-75
2021/10/04 09:42:02;;;;;;;4.05;1.85;;;12.50;99.90;;;;;;4959571;28;20019;-76
2021/10/04 09:44:40;;;;;;;2.35;1.60;;;12.30;99.90;;;;;;4973956;28;20022;-76
2021/10/04 09:47:33;;;;;;;0.80;0.80;;;12.40;99.90;;;;;;4961028;28;20105;-75
2021/10/04 09:50:05;;;;;;;1.90;1.00;;;12.50;99.90;;;;;;4957661;28;20035;-76
2021/10/04 09:52:35;;;;;;;1.58;0.80;;;12.40;99.90;;;;;;4965180;28;20098;-76
2021/10/04 09:55:00;;;;;;;1.27;1.02;;;12.50;99.90;;;;;;4967276;28;20022;-75
2021/10/04 09:57:26;;;;;;;1.73;0.98;;;12.50;99.90;;;;;;4963014;28;20039;-76
2021/10/04 09:59:52;;;;;;;1.55;1.10;;;12.40;99.90;;;;;;4959459;28;20041;-76
2021/10/04 10:02:18;;;;;;;3.67;1.38;;;12.60;99.90;;;;;;4963545;28;20148;-75
2021/10/04 10:04:46;;;;;;;4.78;0.98;;;12.50;99.90;;;;;;4968275;28;20081;-75
2021/10/04 10:07:12;;;;;;;0.77;0.70;;;12.50;99.90;;;;;;4964092;28;20020;-75
2021/10/04 10:09:39;;;;;;;1.25;0.70;;;12.50;99.90;;;;;;4967202;28;20027;-75
2021/10/04 10:12:06;;;;;;;9.43;7.05;;;12.40;99.90;;;;;;4963272;28;20042;-75
2021/10/04 10:14:40;;;;;;;2.47;1.55;;;12.50;99.90;;;;;;4969623;28;20045;-75
2021/10/04 10:17:26;;;;;;;4.70;1.00;;;12.40;99.90;;;;;;4964398;28;20477;-75
2021/10/04 10:19:55;;;;;;;1.65;1.10;;;12.30;99.90;;;;;;4954097;29;20473;-75
2021/10/04 10:22:20;;;;;;;1.38;1.27;;;12.30;99.90;;;;;;4966849;28;20077;-75
2021/10/04 10:24:48;;;;;;;3.00;1.10;;;12.40;99.90;;;;;;4954293;29;20024;-75
2021/10/04 10:27:14;;;;;;;1.85;0.90;;;12.40;99.90;;;;;;4965628;28;20018;-75
2021/10/04 10:29:41;;;;;;;1.85;0.90;;;12.60;99.90;;;;;;4960594;28;20033;-76
2021/10/04 10:32:12;;;;;;;1.33;0.70;;;12.40;99.90;;;;;;4959922;28;20030;-75
2021/10/04 10:34:42;;;;;;;2.35;0.80;;;12.50;99.90;;;;;;4965759;28;20023;-75
2021/10/04 10:37:26;;;;;;;1.98;1.10;;;12.70;99.90;;;;;;4966759;28;20531;-76
2021/10/04 10:40:19;;;;;;;2.00;1.33;;;12.60;99.90;;;;;;4962854;28;20031;-75
2021/10/04 10:43:01;;;;;;;2.97;0.70;;;12.40;99.90;;;;;;4961045;28;20104;-76
2021/10/04 10:45:50;;;;;;;2.97;0.77;;;12.70;99.90;;;;;;4971850;28;20038;-75
2021/10/04 10:48:17;;;;;;;0.60;0.60;;;12.80;99.90;;;;;;4960251;28;20069;-75
2021/10/04 10:50:47;;;;;;;2.72;0.73;;;12.80;99.90;;;;;;4972836;28;20030;-75
2021/10/04 10:53:27;;;;;;;0.60;0.57;;;13.00;99.90;;;;;;4959922;28;20053;-75
2021/10/04 10:55:56;;;;;;;2.60;0.60;;;12.90;99.90;;;;;;4962483;28;20090;-76
2021/10/04 10:58:25;;;;;;;2.22;0.82;;;12.90;99.90;;;;;;4971073;28;20066;-76
2021/10/04 11:00:50;;;;;;;2.22;0.70;;;12.90;99.90;;;;;;4976179;28;20516;-75
2021/10/04 11:03:26;;;;;;;1.38;0.70;;;12.60;99.90;;;;;;4971696;28;20023;-76
2021/10/04 11:06:00;;;;;;;1.85;0.85;;;12.70;99.90;;;;;;4977391;28;20084;-76
2021/10/04 11:08:29;;;;;;;1.33;0.75;;;12.80;99.90;;;;;;4996560;28;20085;-76
2021/10/04 11:10:57;;;;;;;0.68;0.68;;;12.70;99.90;;;;;;4971505;28;20027;-76
2021/10/04 11:13:40;;;;;;;1.13;0.70;;;12.60;99.90;;;;;;4984786;28;20446;-75
2021/10/04 11:16:09;;;;;;;0.70;0.70;;;12.60;99.90;;;;;;4975238;28;20030;-76
2021/10/04 11:18:36;;;;;;;1.75;0.80;;;12.80;99.90;;;;;;4964302;28;20034;-76
2021/10/04 11:21:04;;;;;;;2.75;0.80;;;13.00;99.90;;;;;;4998626;28;20137;-75
2021/10/04 11:23:30;;;;;;;2.05;0.80;;;12.80;99.90;;;;;;4980931;28;20014;-76
2021/10/04 11:25:56;;;;;;;3.53;0.98;;;12.80;99.90;;;;;;4984000;28;20496;-75
2021/10/04 11:28:33;;;;;;;1.10;1.00;;;12.80;99.90;;;;;;4984668;28;20023;-76
2021/10/04 11:31:03;;;;;;;2.28;1.10;;;12.80;99.90;;;;;;4987586;28;20433;-76
2021/10/04 11:33:36;;;;;;;1.98;1.20;;;12.90;99.90;;;;;;4985016;28;20142;-77
2021/10/04 11:36:10;;;;;;;1.20;0.93;;;13.10;99.90;;;;;;4973364;28;20493;-76
2021/10/04 11:38:44;;;;;;;1.95;1.13;;;13.30;99.90;;;;;;4978869;28;20492;-76
2021/10/04 11:41:09;;;;;;;2.28;1.15;;;13.00;99.90;;;;;;4974767;28;20118;-77
2021/10/04 11:43:44;;;;;;;0.85;0.80;;;13.00;99.90;;;;;;4982576;28;20109;-76
2021/10/04 11:46:16;;;;;;;1.23;1.00;;;13.00;99.90;;;;;;4993893;28;20455;-77
2021/10/04 11:48:43;;;;;;;1.00;0.90;;;13.20;99.90;;;;;;4986256;28;20506;-75
2021/10/04 11:51:11;;;;;;;3.22;0.93;;;13.20;99.90;;;;;;4985528;28;20521;-76
2021/10/04 11:53:41;;;;;;;0.90;0.80;;;13.30;99.90;;;;;;4987345;28;20027;-76
2021/10/04 11:56:09;;;;;;;2.65;1.17;;;13.10;99.90;;;;;;4978899;28;20023;-76
2021/10/04 11:58:45;;;;;;;1.60;1.00;;;13.20;99.90;;;;;;4989622;28;20034;-75
2021/10/04 12:01:10;;;;;;;;;;;13.40;99.90;;;;;;4983878;28;20025;-76
2021/10/04 12:03:38;;;;;;;1.23;0.70;;;13.50;99.90;;;;;;4985201;28;19905;-76
2021/10/04 12:06:06;;;;;;;0.73;0.70;;;13.80;99.90;;;;;;4984970;28;20030;-76
2021/10/04 12:08:36;;;;;;;2.28;0.90;;;14.00;99.90;;;;;;4980918;28;20105;-74
2021/10/04 12:11:07;;;;;;;1.65;0.95;;;13.90;99.90;;;;;;4972209;28;20357;-74
2021/10/04 12:13:36;;;;;;;1.55;1.25;;;13.90;99.90;;;;;;4977155;28;20069;-75
2021/10/04 12:16:13;;;;;;;1.98;1.20;;;13.90;99.90;;;;;;4976526;28;20069;-73
2021/10/04 12:18:52;;;;;;;1.20;1.10;;;14.10;99.90;;;;;;4974211;28;20374;-74
2021/10/04 12:21:23;;;;;;;2.10;1.00;;;14.20;99.90;;;;;;4978700;28;20025;-74
2021/10/04 12:24:10;;;;;;;3.92;1.35;;;14.30;99.90;;;;;;5000459;28;20030;-74
2021/10/04 12:26:54;;;;;;;1.33;1.00;;;14.20;99.90;;;;;;4980150;28;20022;-74
2021/10/04 12:29:33;;;;;;;0.90;0.80;;;14.20;99.90;;;;;;4984403;28;20519;-74
2021/10/04 12:32:19;;;;;;;1.23;1.00;;;14.30;99.90;;;;;;4960797;28;20038;-74
2021/10/04 12:35:03;;;;;;;0.80;0.80;;;14.40;99.90;;;;;;4964609;28;20494;-74
2021/10/04 12:37:30;;;;;;;1.65;0.90;;;14.30;99.90;;;;;;4968685;28;20042;-74
2021/10/04 12:39:57;;;;;;;1.60;0.93;;;14.10;99.90;;;;;;4967718;28;20029;-74
2021/10/04 12:42:23;;;;;;;1.10;0.73;;;14.00;99.90;;;;;;4956130;28;20030;-74
2021/10/04 12:44:49;;;;;;;3.03;0.80;;;14.00;99.90;;;;;;4979001;28;20023;-74
2021/10/04 12:47:16;;;;;;;2.00;0.80;;;14.00;99.90;;;;;;4955241;28;20162;-74
2021/10/04 12:49:55;;;;;;;2.75;0.80;;;13.80;99.90;;;;;;4955579;28;20035;-74
2021/10/04 12:52:24;;;;;;;1.70;0.73;;;14.00;99.90;;;;;;4967917;28;20027;-74